Station Historical Data
Daily Summary for May 1, 2017 Units:  English    Metric   Both
« Previous Day
Next Day »
Daily Weekly Monthly Yearly Custom
  High: Low: Average:
Temperature: 73.5 °F 60.7 °F 66.5 °F
Dew Point: 66.8 °F 41.6 °F 55 °F
Humidity: 92% 35% 70%
Wind Speed: 1.0mph 0.0mph 0.1mph
Wind Gust: 6.0mph - -
Wind- - WNW
Pressure: 30.01 in 29.84 in -
Precipitation: 0.19 in    
Historical Graphs
 
 
Tabular Data for May 1, 2017
Time Temperature Dew Point Pressure Wind Wind Speed Wind Gust Humidity Rainfall Rate (Hourly) Conditions
00:00 65.5 °F 62.8 °F 30.01 in Calm     91% 0.00 in RA
00:15 65.4 °F 63.0 °F 29.99 in Calm   1.0 mph 92% 0.00 in SCT
00:30 65.3 °F 62.9 °F 29.96 in Calm   1.0 mph 92% 0.00 in SCT
00:45 65.4 °F 63.0 °F 29.95 in Calm   1.0 mph 92% 0.00 in SCT
01:00 65.5 °F 62.8 °F 29.94 in Calm   1.0 mph 91% 0.00 in SCT
01:15 65.6 °F 62.9 °F 29.91 in Calm   1.0 mph 91% 0.02 in SCT
01:30 65.6 °F 62.9 °F 29.91 in Calm     91% 0.00 in SCT
01:45 65.6 °F 63.2 °F 29.91 in Calm     92% 0.00 in SCT
02:00 65.6 °F 63.2 °F 29.90 in Calm     92% 0.00 in SCT
02:15 65.6 °F 63.2 °F 29.90 in Calm   1.0 mph 92% 0.00 in SCT
02:30 65.6 °F 63.2 °F 29.90 in Calm     92% 0.00 in SCT
02:45 65.7 °F 63.3 °F 29.90 in Calm     92% 0.00 in SCT
03:00 65.9 °F 63.2 °F 29.90 in Calm   1.0 mph 91% 0.00 in SCT
03:15 66.0 °F 63.0 °F 29.89 in Calm   1.0 mph 90% 0.00 in SCT
03:30 65.5 °F 62.2 °F 29.87 in Calm   1.0 mph 89% 0.00 in SCT
03:45 65.3 °F 62.0 °F 29.89 in Calm   1.0 mph 89% 0.00 in SCT
04:00 65.3 °F 62.0 °F 29.88 in Calm     89% 0.00 in SCT
04:15 65.3 °F 62.0 °F 29.89 in Calm     89% 0.00 in SCT
04:30 65.3 °F 62.0 °F 29.89 in Calm     89% 0.00 in SCT
04:45 65.3 °F 62.0 °F 29.89 in Calm     89% 0.00 in SCT
05:00 65.3 °F 62.0 °F 29.89 in Calm     89% 0.00 in SCT
05:15 65.3 °F 62.0 °F 29.90 in Calm     89% 0.00 in SCT
05:30 65.3 °F 62.0 °F 29.89 in Calm     89% 0.00 in SCT
05:45 65.3 °F 62.0 °F 29.89 in Calm     89% 0.00 in SCT
06:00 65.3 °F 62.0 °F 29.90 in Calm     89% 0.00 in SCT
06:15 65.3 °F 62.0 °F 29.90 in Calm     89% 0.00 in SCT
06:30 65.3 °F 62.0 °F 29.89 in Calm     89% 0.00 in SCT
06:45 65.3 °F 62.0 °F 29.88 in Calm     89% 0.00 in SCT
07:00 65.3 °F 62.0 °F 29.88 in Calm     89% 0.00 in SCT
07:15 65.3 °F 62.0 °F 29.88 in Calm     89% 0.00 in SCT
07:30 65.3 °F 62.0 °F 29.88 in Calm     89% 0.00 in SCT
07:45 65.3 °F 62.0 °F 29.88 in Calm     89% 0.00 in SCT
08:00 65.3 °F 62.0 °F 29.88 in Calm     89% 0.00 in SCT
08:15 65.3 °F 62.0 °F 29.88 in Calm     89% 0.00 in SCT
08:30 65.3 °F 62.0 °F 29.88 in Calm     89% 0.00 in SCT
08:45 65.3 °F 62.0 °F 29.88 in Calm     89% 0.00 in SCT
09:00 65.3 °F 62.0 °F 29.87 in Calm     89% 0.00 in SCT
09:15 69.1 °F 66.7 °F 29.88 in NW 1.0 mph 3.0 mph 92% 0.00 in SCT
09:30 69.3 °F 66.8 °F 29.88 in Calm   3.0 mph 92% 0.00 in SCT
09:45 69.2 °F 66.8 °F 29.86 in Calm   3.0 mph 92% 0.03 in RA
10:00 68.5 °F 65.7 °F 29.89 in NW 1.0 mph 2.0 mph 91% 0.13 in RA
10:15 67.2 °F 64.5 °F 29.90 in Calm   2.0 mph 91% 0.01 in SCT
10:30 67.1 °F 64.7 °F 29.90 in Calm   1.0 mph 92% 0.00 in SCT
10:45 66.3 °F 63.0 °F 29.92 in Calm   2.0 mph 89% 0.00 in SCT
11:00 65.1 °F 61.8 °F 29.91 in Calm   1.0 mph 89% 0.00 in SCT
11:15 65.9 °F 62.2 °F 29.92 in Calm   1.0 mph 88% 0.00 in SCT
11:30 63.2 °F 55.5 °F 29.94 in NW 1.0 mph 3.0 mph 76% 0.00 in SCT
11:45 61.9 °F 54.2 °F 29.95 in Calm   3.0 mph 76% 0.00 in SCT
12:00 61.5 °F 53.5 °F 29.95 in Calm   2.0 mph 75% 0.00 in SCT
12:15 60.7 °F 53.8 °F 29.95 in Calm   1.0 mph 78% 0.00 in SCT
12:30 61.0 °F 53.8 °F 29.94 in Calm   1.0 mph 77% 0.00 in SCT
12:45 63.3 °F 53.7 °F 29.94 in Calm   1.0 mph 71% 0.00 in SCT
13:00 65.0 °F 53.4 °F 29.93 in Calm   6.0 mph 66% 0.00 in SCT
13:15 65.9 °F 52.5 °F 29.92 in Calm   3.0 mph 62% 0.00 in SCT
13:30 65.9 °F 50.7 °F 29.91 in Calm   2.0 mph 58% 0.00 in SCT
13:45 64.8 °F 48.7 °F 29.92 in North 1.0 mph 2.0 mph 56% 0.00 in SCT
14:00 64.6 °F 51.3 °F 29.92 in Calm   1.0 mph 62% 0.00 in SCT
14:15 65.0 °F 52.1 °F 29.91 in Calm   1.0 mph 63% 0.00 in SCT
14:30 65.8 °F 52.0 °F 29.91 in Calm   2.0 mph 61% 0.00 in SCT
14:45 66.8 °F 50.6 °F 29.90 in Calm   1.0 mph 56% 0.00 in SCT
15:00 68.9 °F 51.6 °F 29.89 in WSW 1.0 mph 2.0 mph 54% 0.00 in SCT
15:15 69.3 °F 49.3 °F 29.88 in Calm   3.0 mph 49% 0.00 in SCT
15:30 69.5 °F 48.4 °F 29.88 in Calm   2.0 mph 47% 0.00 in SCT
15:45 70.7 °F 49.5 °F 29.87 in Calm   3.0 mph 47% 0.00 in SCT
16:00 71.1 °F 50.4 °F 29.86 in NE 1.0 mph 2.0 mph 48% 0.00 in SCT
16:15 71.3 °F 50.6 °F 29.85 in Calm   3.0 mph 48% 0.00 in SCT
16:30 72.0 °F 52.9 °F 29.85 in Calm   2.0 mph 51% 0.00 in SCT
16:45 72.1 °F 51.3 °F 29.85 in Calm   3.0 mph 48% 0.00 in SCT
17:00 72.6 °F 53.4 °F 29.84 in Calm   2.0 mph 51% 0.00 in SCT
17:15 73.3 °F 51.8 °F 29.84 in Calm   3.0 mph 47% 0.00 in SCT
17:30 73.4 °F 51.9 °F 29.84 in Calm   3.0 mph 47% 0.00 in SCT
17:45 73.3 °F 50.7 °F 29.84 in WNW 1.0 mph 3.0 mph 45% 0.00 in SCT
18:00 73.5 °F 45.6 °F 29.84 in Calm   2.0 mph 37% 0.00 in SCT
18:15 73.3 °F 46.2 °F 29.84 in Calm   5.0 mph 38% 0.00 in SCT
18:30 72.6 °F 44.1 °F 29.84 in North 1.0 mph 3.0 mph 36% 0.00 in SCT
18:45 72.1 °F 44.3 °F 29.84 in Calm   2.0 mph 37% 0.00 in SCT
19:00 71.3 °F 43.7 °F 29.85 in West 1.0 mph 5.0 mph 37% 0.00 in SCT
19:15 71.1 °F 44.8 °F 29.85 in Calm   2.0 mph 39% 0.00 in SCT
19:30 70.6 °F 41.6 °F 29.85 in Calm   2.0 mph 35% 0.00 in SCT
19:45 69.9 °F 43.8 °F 29.85 in Calm   2.0 mph 39% 0.00 in SCT
20:00 68.6 °F 43.9 °F 29.85 in Calm     41% 0.00 in SCT
20:15 67.7 °F 45.6 °F 29.86 in Calm     45% 0.00 in SCT
20:30 67.3 °F 44.6 °F 29.86 in Calm   2.0 mph 44% 0.00 in SCT
20:45 66.4 °F 43.2 °F 29.87 in Calm     43% 0.00 in SCT
21:00 65.9 °F 43.3 °F 29.87 in Calm     44% 0.00 in SCT
21:15 65.2 °F 43.9 °F 29.87 in Calm     46% 0.00 in SCT
21:30 64.3 °F 44.7 °F 29.88 in Calm     49% 0.00 in SCT
21:45 63.9 °F 42.1 °F 29.89 in Calm   2.0 mph 45% 0.00 in SCT
22:00 63.4 °F 42.2 °F 29.89 in Calm     46% 0.00 in SCT
22:15 62.6 °F 43.2 °F 29.90 in Calm     49% 0.00 in SCT
22:30 62.1 °F 42.7 °F 29.90 in Calm   1.0 mph 49% 0.00 in SCT
22:45 62.2 °F 41.8 °F 29.90 in Calm   1.0 mph 47% 0.00 in SCT
23:00 61.8 °F 41.9 °F 29.90 in Calm     48% 0.00 in SCT
23:15 61.9 °F 42.5 °F 29.91 in Calm   2.0 mph 49% 0.00 in SCT
23:30 61.2 °F 41.9 °F 29.91 in Calm   1.0 mph 49% 0.00 in SCT
23:45 61.2 °F 41.9 °F 29.92 in Calm   1.0 mph 49% 0.00 in SCT
Piedmont Bend
Compliments of Weather Underground - 2 mb